createdAt,value
2022-08-09T05:56:02.949Z,2.40
2022-08-09T05:58:30.154Z,2.63
2022-08-09T06:00:58.125Z,2.10
2022-08-09T06:03:25.410Z,1.95
2022-08-09T06:06:05.679Z,2.15
2022-08-09T06:08:35.515Z,1.90
2022-08-09T06:11:16.425Z,2.22
2022-08-09T06:13:44.613Z,1.92
2022-08-09T06:16:14.306Z,2.03
2022-08-09T06:18:43.306Z,2.35
2022-08-09T06:21:11.133Z,2.13
2022-08-09T06:23:58.750Z,2.00
2022-08-09T06:26:28.947Z,2.42
2022-08-09T06:28:59.468Z,2.20
2022-08-09T06:31:31.385Z,2.60
2022-08-09T06:34:07.908Z,2.28
2022-08-09T06:36:43.849Z,2.90
2022-08-09T06:39:15.637Z,2.17
2022-08-09T06:42:08.684Z,2.47
2022-08-09T06:44:44.543Z,2.28
2022-08-09T06:47:21.620Z,2.83
2022-08-09T06:50:14.128Z,1.85
2022-08-09T06:52:47.210Z,2.30
2022-08-09T06:55:18.680Z,2.53
2022-08-09T06:58:02.502Z,2.60
2022-08-09T07:00:54.267Z,2.45
2022-08-09T07:03:18.673Z,2.10
2022-08-09T07:05:53.785Z,2.55
2022-08-09T07:08:30.891Z,2.50
2022-08-09T07:10:58.069Z,1.98
2022-08-09T07:13:29.655Z,2.53
2022-08-09T07:16:42.389Z,1.95
2022-08-09T07:18:47.520Z,2.17
2022-08-09T07:21:17.395Z,1.80
2022-08-09T07:23:56.432Z,2.35
2022-08-09T07:26:25.544Z,2.08
2022-08-09T07:29:08.278Z,2.00
2022-08-09T07:31:45.466Z,2.13
2022-08-09T07:34:20.386Z,2.25
2022-08-09T07:36:49.780Z,2.22
2022-08-09T07:39:20.596Z,2.35
2022-08-09T07:42:05.248Z,2.03
2022-08-09T07:44:52.106Z,2.22
2022-08-09T07:47:21.091Z,2.08
2022-08-09T07:50:08.151Z,2.13
2022-08-09T07:52:38.164Z,1.95
2022-08-09T07:55:09.771Z,2.13
2022-08-09T07:57:46.481Z,2.03
2022-08-09T08:00:20.691Z,2.25
2022-08-09T08:03:08.364Z,2.25
2022-08-09T08:05:39.076Z,1.83
2022-08-09T08:09:01.276Z,2.10
2022-08-09T08:12:24.923Z,2.00
2022-08-09T08:13:56.977Z,2.03
2022-08-09T08:16:32.190Z,2.10
2022-08-09T08:19:12.256Z,2.42
2022-08-09T08:21:57.072Z,3.10
2022-08-09T08:24:34.289Z,1.98
2022-08-09T08:27:16.776Z,2.00
2022-08-09T08:29:52.447Z,1.70
2022-08-09T08:32:29.381Z,1.65
2022-08-09T08:35:18.242Z,1.60
2022-08-09T08:38:04.905Z,1.92
2022-08-09T08:40:44.899Z,1.88
2022-08-09T08:43:51.950Z,1.70
2022-08-09T08:46:32.412Z,1.98
2022-08-09T08:55:23.370Z,1.85
2022-08-09T08:57:58.260Z,1.98
2022-08-09T09:00:37.712Z,2.15
2022-08-09T09:06:00.875Z,2.55
2022-08-09T09:08:37.842Z,2.50
2022-08-09T09:11:07.693Z,1.33
2022-08-09T09:13:47.435Z,2.08
2022-08-09T09:16:34.416Z,1.73
2022-08-09T09:19:40.417Z,2.05
2022-08-09T09:22:07.433Z,1.40
2022-08-09T09:24:38.820Z,1.60
2022-08-09T09:27:08.817Z,1.60
2022-08-09T09:30:11.991Z,1.45
2022-08-09T09:32:34.226Z,1.88
2022-08-09T09:35:07.794Z,1.88
2022-08-09T09:37:40.420Z,1.70
2022-08-09T09:40:09.691Z,1.50
2022-08-09T09:42:39.534Z,1.55
2022-08-09T09:45:14.487Z,1.42
2022-08-09T09:47:56.428Z,1.58
2022-08-09T09:50:49.336Z,1.50
2022-08-09T09:53:57.562Z,1.45
2022-08-09T09:56:53.373Z,1.35
2022-08-09T09:59:36.258Z,1.33
2022-08-09T10:02:11.110Z,1.40
2022-08-09T10:04:38.783Z,2.35
2022-08-09T10:07:09.955Z,1.70
2022-08-09T10:10:03.284Z,1.45
2022-08-09T10:12:53.944Z,1.45
2022-08-09T10:15:50.967Z,1.40
2022-08-09T10:18:13.026Z,1.60
2022-08-09T10:21:04.673Z,1.50
2022-08-09T10:23:57.398Z,1.60
2022-08-09T10:26:28.843Z,1.80
2022-08-09T10:29:33.687Z,1.48
2022-08-09T10:34:35.997Z,1.70
2022-08-09T10:37:13.935Z,1.63
2022-08-09T10:39:49.488Z,1.48
2022-08-09T10:42:27.174Z,1.70
2022-08-09T10:45:11.974Z,1.38
2022-08-09T10:48:17.058Z,1.92
2022-08-09T10:51:08.499Z,1.40
2022-08-09T10:54:12.142Z,1.35
2022-08-09T10:56:50.224Z,1.58
2022-08-09T10:59:31.160Z,1.77
2022-08-09T11:03:13.151Z,1.73
2022-08-09T11:05:25.321Z,1.60
2022-08-09T11:08:00.606Z,1.48
2022-08-09T11:10:53.247Z,1.42
2022-08-09T11:16:44.936Z,1.40
2022-08-09T11:24:04.951Z,2.53
2022-08-09T11:28:02.752Z,1.52
2022-08-09T11:30:33.390Z,1.67
2022-08-09T11:33:29.488Z,1.40
2022-08-09T11:36:30.214Z,1.50
2022-08-09T11:39:37.923Z,1.67
2022-08-09T11:42:18.820Z,1.50
2022-08-09T11:45:54.378Z,1.40
2022-08-09T12:10:48.297Z,1.30
2022-08-09T12:15:07.622Z,1.40
2022-08-09T12:30:36.279Z,1.20
2022-08-09T13:32:53.655Z,1.30
2022-08-09T14:00:59.822Z,1.20
2022-08-09T14:51:27.223Z,1.40
2022-08-09T14:53:57.752Z,1.60
2022-08-09T15:04:01.601Z,1.65
2022-08-09T15:13:48.170Z,1.38
2022-08-09T15:21:55.043Z,1.65
2022-08-09T15:24:00.954Z,1.50
2022-08-09T15:31:01.414Z,1.40
2022-08-09T15:34:15.533Z,1.60
2022-08-09T15:50:03.509Z,1.65
2022-08-09T16:00:25.825Z,1.33
2022-08-09T16:14:04.155Z,1.42
2022-08-09T16:24:45.579Z,1.77
2022-08-09T16:27:24.293Z,2.00
2022-08-09T16:30:00.789Z,1.67
2022-08-09T18:00:05.401Z,1.77
2022-08-09T18:02:40.393Z,1.88
2022-08-09T18:05:38.895Z,1.50
2022-08-09T18:08:13.262Z,1.67
2022-08-09T18:11:01.773Z,1.40
2022-08-09T18:13:39.525Z,1.55
2022-08-09T18:16:30.369Z,1.65
2022-08-09T18:18:59.419Z,1.40
2022-08-09T18:21:50.418Z,1.75
2022-08-09T18:24:35.160Z,1.40
2022-08-09T18:28:02.234Z,1.50
2022-08-09T18:30:39.440Z,1.53
2022-08-09T18:33:53.139Z,1.65
2022-08-09T18:36:34.791Z,1.85
2022-08-09T18:39:17.067Z,1.30
2022-08-09T18:46:47.212Z,1.63
2022-08-09T18:49:41.815Z,1.43
2022-08-09T18:53:59.690Z,1.33
2022-08-09T18:56:05.591Z,1.30
2022-08-09T18:58:55.936Z,1.70
2022-08-09T19:01:43.159Z,1.33
2022-08-09T19:04:34.586Z,1.42
2022-08-09T19:08:10.097Z,1.83
2022-08-09T19:14:08.159Z,1.10
2022-08-09T19:16:50.140Z,1.10
2022-08-09T19:19:41.509Z,2.10
2022-08-09T19:22:54.122Z,1.23
2022-08-09T19:26:02.427Z,1.40
2022-08-09T19:28:52.563Z,1.67
2022-08-09T19:31:49.311Z,1.40
2022-08-09T19:37:06.784Z,1.30
2022-08-09T19:40:05.099Z,1.65
2022-08-09T19:42:43.065Z,1.50
2022-08-09T19:45:17.030Z,1.40
2022-08-09T19:47:45.082Z,1.40
2022-08-09T19:50:50.733Z,1.70
2022-08-09T19:53:04.162Z,1.60
2022-08-09T19:56:02.396Z,1.45
2022-08-09T19:58:29.680Z,1.50
2022-08-09T20:00:57.882Z,1.80
2022-08-09T20:04:23.946Z,1.95
2022-08-09T20:06:23.039Z,1.38
2022-08-09T20:08:56.603Z,1.70
2022-08-09T20:13:54.738Z,1.10
2022-08-09T20:16:35.163Z,1.73
2022-08-09T20:19:42.809Z,2.25
2022-08-09T20:21:56.733Z,1.70
2022-08-09T20:24:29.501Z,1.75
2022-08-09T20:27:05.482Z,1.80
2022-08-09T20:29:37.390Z,1.80
2022-08-09T20:32:30.670Z,1.88
2022-08-09T20:34:56.492Z,1.45
2022-08-09T20:37:23.949Z,1.65
2022-08-09T20:40:16.226Z,1.48
2022-08-09T20:42:38.270Z,1.50
2022-08-09T20:45:57.873Z,1.45
2022-08-09T20:47:55.145Z,1.63
2022-08-09T20:50:48.560Z,1.58
2022-08-09T20:53:21.016Z,1.33
2022-08-09T20:56:01.131Z,1.55
2022-08-09T20:58:32.587Z,1.52
2022-08-09T21:01:14.390Z,1.50
2022-08-09T21:05:48.699Z,1.70
2022-08-09T21:06:36.016Z,1.23
2022-08-09T21:09:03.528Z,1.63
2022-08-09T21:14:17.799Z,1.58
2022-08-09T21:16:45.762Z,1.40
2022-08-09T21:20:19.304Z,1.50
2022-08-09T21:22:00.706Z,1.70
2022-08-09T21:24:33.813Z,1.63
2022-08-09T21:27:10.411Z,1.73
2022-08-09T21:29:49.459Z,2.10
2022-08-09T21:32:18.743Z,1.77
2022-08-09T21:34:48.586Z,1.20
2022-08-09T21:37:18.021Z,1.48
2022-08-09T21:39:49.752Z,1.65
2022-08-09T21:42:17.741Z,1.70
2022-08-09T21:44:55.697Z,1.33
2022-08-09T21:47:22.739Z,1.15
2022-08-09T21:49:50.816Z,1.30
2022-08-09T21:52:20.417Z,1.10
2022-08-09T21:54:59.730Z,1.35
2022-08-09T21:57:38.845Z,1.45
2022-08-09T22:00:32.548Z,1.52
2022-08-09T22:03:02.407Z,1.30
2022-08-09T22:05:36.066Z,1.55
2022-08-09T22:08:12.900Z,1.75
2022-08-09T22:11:49.173Z,1.60
2022-08-09T22:13:34.794Z,1.52
2022-08-09T22:16:04.688Z,1.50
2022-08-09T22:18:35.766Z,1.50
2022-08-09T22:21:09.740Z,1.30
2022-08-09T22:24:01.444Z,1.70
2022-08-09T22:26:34.972Z,1.40
2022-08-09T22:29:07.390Z,1.60
2022-08-09T22:31:36.089Z,1.70
2022-08-09T22:34:03.376Z,1.20
2022-08-09T22:36:45.779Z,1.52
2022-08-09T22:39:47.254Z,1.60
2022-08-09T22:42:02.676Z,1.40
2022-08-09T22:44:32.655Z,1.60
2022-08-09T22:48:11.358Z,1.40
2022-08-09T22:49:52.120Z,1.42
2022-08-09T22:52:21.003Z,1.27
2022-08-09T22:54:51.574Z,1.50
2022-08-09T22:57:18.565Z,1.48
2022-08-09T22:59:58.050Z,1.27
2022-08-09T23:02:27.442Z,1.70
2022-08-09T23:04:55.390Z,1.50
2022-08-09T23:08:27.748Z,1.40
2022-08-09T23:10:30.452Z,1.65
2022-08-09T23:12:57.986Z,1.50
2022-08-09T23:15:25.119Z,1.52
2022-08-09T23:17:52.127Z,1.50
2022-08-09T23:20:19.193Z,1.23
2022-08-09T23:22:46.267Z,1.40
2022-08-09T23:25:13.365Z,2.22
2022-08-09T23:28:14.986Z,1.83
2022-08-09T23:30:27.608Z,1.55
2022-08-09T23:32:54.646Z,1.60
2022-08-09T23:35:21.806Z,1.40
2022-08-09T23:37:48.822Z,2.17
2022-08-09T23:40:17.276Z,1.40
2022-08-09T23:42:44.272Z,1.30
2022-08-09T23:45:36.497Z,1.25
2022-08-09T23:47:58.658Z,1.10
2022-08-09T23:50:25.765Z,1.30
2022-08-09T23:52:52.975Z,1.40
2022-08-09T23:55:20.204Z,1.85
2022-08-09T23:58:07.191Z,1.70
